createdAt,value
2019-05-30T00:00:07.369Z,7.20
2019-05-30T00:00:53.873Z,7.20
2019-05-30T00:01:52.048Z,7.20
2019-05-30T00:02:52.037Z,7.19
2019-05-30T00:03:52.025Z,7.19
2019-05-30T00:04:52.014Z,7.20
2019-05-30T00:05:52.067Z,7.16
2019-05-30T00:06:52.001Z,7.22
2019-05-30T00:07:51.983Z,7.19
2019-05-30T00:08:51.971Z,7.16
2019-05-30T00:09:51.960Z,7.08
2019-05-30T00:10:51.948Z,7.02
2019-05-30T00:11:52.143Z,6.94
2019-05-30T00:12:51.926Z,6.90
2019-05-30T00:13:51.917Z,6.89
2019-05-30T00:14:51.906Z,6.84
2019-05-30T00:15:51.894Z,6.84
2019-05-30T00:16:51.882Z,6.68
2019-05-30T00:17:51.931Z,6.79
2019-05-30T00:18:51.862Z,6.72
2019-05-30T00:19:51.851Z,6.73
2019-05-30T00:20:51.839Z,6.71
2019-05-30T00:21:51.828Z,6.71
2019-05-30T00:22:51.821Z,6.65
2019-05-30T00:23:51.872Z,6.69
2019-05-30T00:24:51.794Z,6.71
2019-05-30T00:25:51.783Z,6.69
2019-05-30T00:26:51.786Z,6.71
2019-05-30T00:27:51.761Z,6.73
2019-05-30T00:28:51.751Z,6.66
2019-05-30T00:29:51.943Z,6.63
2019-05-30T00:30:51.731Z,6.51
2019-05-30T00:31:51.718Z,6.48
2019-05-30T00:32:51.707Z,6.50
2019-05-30T00:33:51.695Z,6.36
2019-05-30T00:34:51.684Z,6.30
2019-05-30T00:35:51.733Z,6.36
2019-05-30T00:36:51.659Z,6.32
2019-05-30T00:37:51.649Z,6.30
2019-05-30T00:38:51.638Z,6.50
2019-05-30T00:39:51.627Z,6.29
2019-05-30T00:40:51.615Z,6.43
2019-05-30T00:41:51.667Z,6.29
2019-05-30T00:42:51.594Z,6.28
2019-05-30T00:43:51.581Z,6.18
2019-05-30T00:44:51.589Z,6.10
2019-05-30T00:45:51.562Z,5.96
2019-05-30T00:46:51.553Z,5.93
2019-05-30T00:47:51.594Z,5.78
2019-05-30T00:48:51.537Z,5.70
2019-05-30T00:49:51.539Z,5.71
2019-05-30T00:50:51.503Z,5.71
2019-05-30T00:51:51.497Z,5.77
2019-05-30T00:52:51.482Z,5.83
2019-05-30T00:53:51.534Z,5.82
2019-05-30T00:54:51.459Z,5.81
2019-05-30T00:55:51.447Z,5.75
2019-05-30T00:56:51.437Z,5.59
2019-05-30T00:57:51.429Z,5.41
2019-05-30T00:58:51.413Z,5.41
2019-05-30T00:59:51.476Z,5.41
2019-05-30T01:00:51.410Z,5.25
2019-05-30T01:01:51.378Z,5.16
2019-05-30T01:02:51.424Z,5.17
2019-05-30T01:03:51.356Z,5.13
2019-05-30T01:04:51.347Z,5.09
2019-05-30T01:05:51.398Z,4.98
2019-05-30T01:06:51.324Z,5.13
2019-05-30T01:07:51.311Z,5.19
2019-05-30T01:08:51.306Z,5.25
2019-05-30T01:09:51.290Z,5.34
2019-05-30T01:10:51.276Z,5.38
2019-05-30T01:11:51.320Z,5.35
2019-05-30T01:12:51.253Z,5.38
2019-05-30T01:13:51.242Z,5.48
2019-05-30T01:14:51.231Z,5.57
2019-05-30T01:15:51.221Z,5.73
2019-05-30T01:16:51.322Z,5.73
2019-05-30T01:17:51.263Z,5.63
2019-05-30T01:18:51.199Z,5.57
2019-05-30T01:19:51.182Z,5.60
2019-05-30T01:20:51.166Z,5.66
2019-05-30T01:21:51.153Z,5.71
2019-05-30T01:22:51.141Z,5.74
2019-05-30T01:23:51.190Z,5.74
2019-05-30T01:24:51.139Z,5.68
2019-05-30T01:25:51.106Z,5.73
2019-05-30T01:26:51.094Z,5.78
2019-05-30T01:27:51.084Z,5.82
2019-05-30T01:28:51.072Z,5.73
2019-05-30T01:29:51.128Z,5.73
2019-05-30T01:31:00.213Z,5.70
2019-05-30T01:31:52.041Z,5.77
2019-05-30T01:32:51.027Z,5.78
2019-05-30T01:33:51.027Z,5.71
2019-05-30T01:34:51.003Z,5.75
2019-05-30T01:35:51.047Z,5.73
2019-05-30T01:36:50.984Z,5.70
2019-05-30T01:37:50.971Z,5.73
2019-05-30T01:38:50.965Z,5.77
2019-05-30T01:39:50.950Z,5.68
2019-05-30T01:40:50.935Z,5.71
2019-05-30T01:41:50.985Z,5.77
2019-05-30T01:42:50.941Z,5.77
2019-05-30T01:43:50.902Z,5.73
2019-05-30T01:44:50.890Z,5.81
2019-05-30T01:45:50.881Z,5.78
2019-05-30T01:46:50.868Z,5.81
2019-05-30T01:47:50.916Z,5.86
2019-05-30T01:48:50.863Z,5.96
2019-05-30T01:49:50.835Z,5.96
2019-05-30T01:50:50.822Z,5.96
2019-05-30T01:51:50.812Z,5.89
2019-05-30T01:52:50.962Z,5.77
2019-05-30T01:53:50.851Z,5.66
2019-05-30T01:54:50.777Z,5.73
2019-05-30T01:55:50.765Z,5.71
2019-05-30T01:56:50.754Z,5.63
2019-05-30T01:57:50.742Z,5.67
2019-05-30T01:58:50.731Z,5.64
2019-05-30T01:59:50.782Z,5.56
2019-05-30T02:00:50.709Z,5.55
2019-05-30T02:01:50.697Z,5.52
2019-05-30T02:02:50.686Z,5.53
2019-05-30T02:03:50.676Z,5.43
2019-05-30T02:04:50.664Z,5.46
2019-05-30T02:05:50.712Z,5.49
2019-05-30T02:06:50.640Z,5.43
2019-05-30T02:07:50.631Z,5.40
2019-05-30T02:08:50.617Z,5.40
2019-05-30T02:09:50.607Z,5.37
2019-05-30T02:10:50.595Z,5.35
2019-05-30T02:11:50.649Z,5.31
2019-05-30T02:12:50.601Z,5.23
2019-05-30T02:13:50.562Z,5.20
2019-05-30T02:14:50.551Z,5.10
2019-05-30T02:15:50.540Z,5.09
2019-05-30T02:16:50.533Z,4.94
2019-05-30T02:17:50.580Z,4.84
2019-05-30T02:18:50.504Z,4.73
2019-05-30T02:19:50.493Z,4.54
2019-05-30T02:20:50.483Z,4.44
2019-05-30T02:21:50.470Z,4.33
2019-05-30T02:22:50.459Z,4.24
2019-05-30T02:23:50.517Z,4.22
2019-05-30T02:24:50.438Z,4.19
2019-05-30T02:25:50.425Z,4.06
2019-05-30T02:26:50.413Z,4.12
2019-05-30T02:27:50.403Z,4.10
2019-05-30T02:28:50.393Z,4.07
2019-05-30T02:29:50.443Z,4.03
2019-05-30T02:30:50.370Z,4.16
2019-05-30T02:31:50.369Z,4.33
2019-05-30T02:32:50.349Z,4.37
2019-05-30T02:33:50.336Z,4.36
2019-05-30T02:34:50.326Z,4.34
2019-05-30T02:35:50.388Z,4.37
2019-05-30T02:36:50.312Z,4.57
2019-05-30T02:37:50.295Z,4.61
2019-05-30T02:38:50.290Z,4.72
2019-05-30T02:39:50.272Z,4.61
2019-05-30T02:40:50.257Z,4.42
2019-05-30T02:41:50.306Z,4.36
2019-05-30T02:42:50.238Z,4.14
2019-05-30T02:43:50.228Z,4.07
2019-05-30T02:44:50.216Z,4.00
2019-05-30T02:45:50.203Z,3.88
2019-05-30T02:46:50.193Z,3.71
2019-05-30T02:47:50.245Z,3.64
2019-05-30T02:48:59.096Z,3.65
2019-05-30T02:49:51.157Z,3.70
2019-05-30T02:50:50.147Z,3.75
2019-05-30T02:51:50.137Z,3.68
2019-05-30T02:52:50.125Z,3.70
2019-05-30T02:53:50.174Z,3.65
2019-05-30T02:54:50.103Z,3.71
2019-05-30T02:55:50.092Z,3.68
2019-05-30T02:56:50.093Z,3.60
2019-05-30T02:57:50.069Z,3.70
2019-05-30T02:58:50.060Z,3.75
2019-05-30T02:59:50.112Z,3.68
2019-05-30T03:00:50.038Z,3.67
2019-05-30T03:02:01.324Z,3.70
2019-05-30T03:02:51.013Z,3.65
2019-05-30T03:03:50.008Z,3.67
2019-05-30T03:04:49.991Z,3.68
2019-05-30T03:05:50.035Z,3.62
2019-05-30T03:06:49.970Z,3.75
2019-05-30T03:07:49.959Z,3.68
2019-05-30T03:08:49.947Z,3.62
2019-05-30T03:09:49.935Z,3.76
2019-05-30T03:10:49.930Z,3.71
2019-05-30T03:11:49.977Z,3.65
2019-05-30T03:12:49.905Z,3.64
2019-05-30T03:13:49.892Z,3.61
2019-05-30T03:14:49.882Z,3.60
2019-05-30T03:15:49.872Z,3.60
2019-05-30T03:16:49.861Z,3.67
2019-05-30T03:17:49.902Z,3.58
2019-05-30T03:18:49.835Z,3.65
2019-05-30T03:19:49.823Z,3.64
2019-05-30T03:20:49.813Z,3.68
2019-05-30T03:21:49.802Z,3.72
2019-05-30T03:22:49.795Z,3.68
2019-05-30T03:23:49.843Z,3.70
2019-05-30T03:24:49.772Z,3.67
2019-05-30T03:25:49.756Z,3.65
2019-05-30T03:26:49.743Z,3.75
2019-05-30T03:27:49.733Z,3.83
2019-05-30T03:28:53.354Z,4.07
2019-05-30T03:29:49.770Z,4.16
2019-05-30T03:30:49.704Z,4.18
2019-05-30T03:31:49.712Z,4.19
2019-05-30T03:33:19.386Z,4.14
2019-05-30T03:33:50.664Z,4.15
2019-05-30T03:34:49.656Z,4.16
2019-05-30T03:35:49.717Z,4.19
2019-05-30T03:36:49.644Z,4.39
2019-05-30T03:37:49.619Z,4.44
2019-05-30T03:38:49.674Z,4.64
2019-05-30T03:39:49.599Z,4.72
2019-05-30T03:40:49.586Z,4.84
2019-05-30T03:41:49.628Z,4.96
2019-05-30T03:42:49.564Z,5.02
2019-05-30T03:43:49.550Z,5.09
2019-05-30T03:44:49.539Z,5.16
2019-05-30T03:45:49.529Z,5.16
2019-05-30T03:46:49.514Z,5.17
2019-05-30T03:47:49.558Z,5.22
2019-05-30T03:48:49.498Z,5.30
2019-05-30T03:49:49.482Z,5.30
2019-05-30T03:50:49.471Z,5.37
2019-05-30T03:51:49.461Z,5.37
2019-05-30T03:52:49.450Z,5.32
2019-05-30T03:53:49.503Z,5.38
2019-05-30T03:54:49.428Z,5.40
2019-05-30T03:55:49.416Z,5.35
2019-05-30T03:56:49.409Z,5.28
2019-05-30T03:57:49.393Z,5.17
2019-05-30T03:58:49.382Z,5.09
2019-05-30T03:59:49.437Z,5.02
2019-05-30T04:00:51.260Z,4.95
2019-05-30T04:01:49.361Z,4.86
2019-05-30T04:02:57.062Z,4.88
2019-05-30T04:03:50.328Z,4.83
2019-05-30T04:04:49.318Z,4.73
2019-05-30T04:05:49.364Z,4.65
2019-05-30T04:06:49.292Z,4.72
2019-05-30T04:07:49.293Z,4.76
2019-05-30T04:08:49.285Z,4.70
2019-05-30T04:09:49.258Z,4.64
2019-05-30T04:10:49.247Z,4.73
2019-05-30T04:11:49.299Z,4.76
2019-05-30T04:12:49.230Z,4.69
2019-05-30T04:13:49.216Z,4.67
2019-05-30T04:14:49.203Z,4.67
2019-05-30T04:15:49.191Z,4.72
2019-05-30T04:16:49.188Z,4.72
2019-05-30T04:17:49.233Z,4.76
2019-05-30T04:18:49.161Z,4.77
2019-05-30T04:19:49.155Z,4.80
2019-05-30T04:20:49.135Z,4.80
2019-05-30T04:21:49.129Z,4.92
2019-05-30T04:22:49.114Z,4.94
2019-05-30T04:23:49.175Z,4.94
2019-05-30T04:24:49.092Z,4.94
2019-05-30T04:25:49.081Z,5.09
2019-05-30T04:26:49.071Z,5.12
2019-05-30T04:27:49.068Z,5.19
2019-05-30T04:28:49.049Z,5.22
2019-05-30T04:29:49.093Z,5.28
2019-05-30T04:30:49.024Z,5.34
2019-05-30T04:31:49.015Z,5.46
2019-05-30T04:32:49.003Z,5.53
2019-05-30T04:33:48.995Z,5.63
2019-05-30T04:34:48.978Z,5.67
2019-05-30T04:35:49.034Z,5.66
2019-05-30T04:36:53.151Z,5.78
2019-05-30T04:37:48.945Z,5.81
2019-05-30T04:38:48.966Z,5.82
2019-05-30T04:39:48.922Z,5.93
2019-05-30T04:40:48.910Z,5.91
2019-05-30T04:41:48.961Z,6.10
2019-05-30T04:42:48.894Z,6.09
2019-05-30T04:43:48.881Z,6.28
2019-05-30T04:44:48.865Z,6.28
2019-05-30T04:45:48.855Z,6.30
2019-05-30T04:46:48.853Z,6.30
2019-05-30T04:47:48.927Z,6.28
2019-05-30T04:48:48.822Z,6.28
2019-05-30T04:49:48.810Z,6.47
2019-05-30T04:50:48.802Z,6.53
2019-05-30T04:51:48.787Z,6.61
2019-05-30T04:52:48.773Z,6.71
2019-05-30T04:53:48.820Z,6.72
2019-05-30T04:54:48.752Z,6.94
2019-05-30T04:55:48.742Z,6.84
2019-05-30T04:56:48.729Z,6.97
2019-05-30T04:57:48.725Z,7.07
2019-05-30T04:58:48.709Z,7.19
2019-05-30T04:59:48.783Z,7.13
2019-05-30T05:00:48.685Z,7.35
2019-05-30T05:01:48.681Z,7.41
2019-05-30T05:02:48.669Z,7.56
2019-05-30T05:03:48.652Z,7.60
2019-05-30T05:04:48.642Z,7.74
2019-05-30T05:05:48.706Z,7.79
2019-05-30T05:06:48.618Z,7.79
2019-05-30T05:07:48.608Z,7.87
2019-05-30T05:08:48.597Z,7.85
2019-05-30T05:09:48.584Z,7.94
2019-05-30T05:10:48.579Z,7.99
2019-05-30T05:11:48.627Z,8.04
2019-05-30T05:12:50.255Z,8.18
2019-05-30T05:13:48.539Z,8.36
2019-05-30T05:14:48.528Z,8.47
2019-05-30T05:15:48.524Z,8.58
2019-05-30T05:16:48.504Z,8.69
2019-05-30T05:17:48.550Z,8.79
2019-05-30T05:18:48.485Z,8.86
2019-05-30T05:19:48.470Z,8.99
2019-05-30T05:20:48.459Z,9.01
2019-05-30T05:21:48.449Z,9.10
2019-05-30T05:22:48.436Z,9.16
2019-05-30T05:23:48.493Z,9.20
2019-05-30T05:24:48.414Z,9.38
2019-05-30T05:26:00.259Z,9.43
2019-05-30T05:26:49.392Z,9.38
2019-05-30T05:27:48.424Z,9.57
2019-05-30T05:28:48.395Z,9.70
2019-05-30T05:29:48.422Z,9.83
2019-05-30T05:30:48.346Z,9.93
2019-05-30T05:31:48.336Z,9.93
2019-05-30T05:32:48.325Z,10.15
2019-05-30T05:33:56.860Z,10.30
2019-05-30T05:34:52.019Z,10.22
2019-05-30T05:35:48.290Z,10.34
2019-05-30T05:36:48.280Z,10.34
2019-05-30T05:37:48.268Z,10.39
2019-05-30T05:38:48.255Z,10.39
2019-05-30T05:39:48.247Z,10.51
2019-05-30T05:40:48.295Z,10.53
2019-05-30T05:41:48.222Z,10.65
2019-05-30T05:42:48.211Z,10.66
2019-05-30T05:43:48.200Z,10.81
2019-05-30T05:44:48.188Z,10.86
2019-05-30T05:45:48.179Z,10.96
2019-05-30T05:46:48.240Z,11.01
2019-05-30T05:47:48.160Z,11.02
2019-05-30T05:48:48.147Z,11.21
2019-05-30T05:49:48.135Z,11.29
2019-05-30T05:50:48.122Z,11.53
2019-05-30T05:51:48.110Z,11.78
2019-05-30T05:52:48.159Z,11.99
2019-05-30T05:53:48.087Z,12.16
2019-05-30T05:54:48.077Z,12.34
2019-05-30T05:55:48.066Z,12.29
2019-05-30T05:56:48.052Z,12.46
2019-05-30T05:57:48.042Z,12.82
2019-05-30T05:58:48.086Z,13.33
2019-05-30T05:59:48.022Z,13.54
2019-05-30T06:00:48.009Z,13.70
2019-05-30T06:01:47.999Z,14.32
2019-05-30T06:02:47.984Z,14.69
2019-05-30T06:03:47.975Z,14.94
2019-05-30T06:04:48.040Z,15.01
2019-05-30T06:05:52.880Z,15.05
2019-05-30T06:06:48.950Z,15.45
2019-05-30T06:07:47.929Z,15.67
2019-05-30T06:08:47.920Z,16.33
2019-05-30T06:09:47.938Z,16.31
2019-05-30T06:10:47.949Z,16.70
2019-05-30T06:11:49.122Z,16.85
2019-05-30T06:12:48.123Z,16.63
2019-05-30T06:13:47.862Z,16.38
2019-05-30T06:14:47.854Z,16.50
2019-05-30T06:15:47.838Z,16.45
2019-05-30T06:16:47.892Z,16.42
2019-05-30T06:17:47.815Z,16.58
2019-05-30T06:18:47.813Z,16.71
2019-05-30T06:19:47.795Z,16.92
2019-05-30T06:20:47.784Z,16.71
2019-05-30T06:21:53.889Z,16.67
2019-05-30T06:22:48.830Z,16.74
2019-05-30T06:23:47.749Z,16.81
2019-05-30T06:24:47.740Z,16.83
2019-05-30T06:25:47.728Z,16.59
2019-05-30T06:26:47.716Z,16.26
2019-05-30T06:27:47.703Z,16.34
2019-05-30T06:28:47.759Z,16.52
2019-05-30T06:29:47.681Z,16.58
2019-05-30T06:30:47.673Z,16.50
2019-05-30T06:31:47.660Z,16.59
2019-05-30T06:32:47.649Z,16.81
2019-05-30T06:33:47.640Z,16.89
2019-05-30T06:34:47.693Z,16.92
2019-05-30T06:35:47.615Z,16.99
2019-05-30T06:36:47.610Z,17.17
2019-05-30T06:37:47.592Z,17.43
2019-05-30T06:38:47.582Z,17.38
2019-05-30T06:39:47.577Z,17.62
2019-05-30T06:40:47.627Z,17.74
2019-05-30T06:41:47.550Z,17.87
2019-05-30T06:42:47.539Z,18.07
2019-05-30T06:43:47.547Z,18.44
2019-05-30T06:44:47.518Z,18.54
2019-05-30T06:45:47.512Z,18.49
2019-05-30T06:46:47.556Z,18.47
2019-05-30T06:47:47.482Z,18.67
2019-05-30T06:48:47.474Z,18.94
2019-05-30T06:49:47.481Z,19.13
2019-05-30T06:50:47.449Z,19.38
2019-05-30T06:51:47.440Z,19.66
2019-05-30T06:52:47.492Z,19.79
2019-05-30T06:53:47.415Z,20.03
2019-05-30T06:54:47.403Z,19.97
2019-05-30T06:55:47.401Z,19.97
2019-05-30T06:56:47.381Z,19.66
2019-05-30T06:57:47.418Z,19.63
2019-05-30T06:58:49.057Z,19.65
2019-05-30T06:59:47.349Z,19.39
2019-05-30T07:00:47.336Z,19.65
2019-05-30T07:01:47.332Z,19.50
2019-05-30T07:02:47.326Z,19.60
2019-05-30T07:03:47.504Z,19.78
2019-05-30T07:04:51.938Z,20.10
2019-05-30T07:05:48.780Z,20.27
2019-05-30T07:06:47.500Z,20.58
2019-05-30T07:07:47.396Z,20.90
2019-05-30T07:08:47.248Z,21.21
2019-05-30T07:09:47.240Z,21.51
2019-05-30T07:10:47.291Z,21.83
2019-05-30T07:11:47.213Z,21.83
2019-05-30T07:12:47.201Z,21.71
2019-05-30T07:13:47.197Z,21.67
2019-05-30T07:14:47.179Z,21.71
2019-05-30T07:15:47.168Z,21.72
2019-05-30T07:16:47.218Z,21.97
2019-05-30T07:17:47.146Z,22.10
2019-05-30T07:18:47.141Z,22.25
2019-05-30T07:19:47.182Z,22.25
2019-05-30T07:20:47.111Z,22.20
2019-05-30T07:21:47.100Z,21.81
2019-05-30T07:22:47.144Z,21.78
2019-05-30T07:23:47.079Z,21.69
2019-05-30T07:24:47.068Z,21.90
2019-05-30T07:25:47.058Z,22.22
2019-05-30T07:26:47.043Z,22.25
2019-05-30T07:27:47.032Z,22.43
2019-05-30T07:28:47.079Z,22.52
2019-05-30T07:29:47.010Z,22.23
2019-05-30T07:30:47.016Z,21.98
2019-05-30T07:31:47.005Z,21.69
2019-05-30T07:32:46.979Z,21.53
2019-05-30T07:33:46.966Z,21.78
2019-05-30T07:34:47.014Z,22.09
2019-05-30T07:35:46.941Z,22.44
2019-05-30T07:36:46.931Z,22.31
2019-05-30T07:37:46.946Z,22.29
2019-05-30T07:38:46.908Z,22.43
2019-05-30T07:39:46.899Z,22.46
2019-05-30T07:40:46.943Z,22.44
2019-05-30T07:42:04.957Z,22.37
2019-05-30T07:42:47.865Z,22.13
2019-05-30T07:43:46.852Z,22.38
2019-05-30T07:44:46.843Z,22.57
2019-05-30T07:45:57.383Z,22.62
2019-05-30T07:46:47.883Z,22.01
2019-05-30T07:47:46.809Z,22.37
2019-05-30T07:48:46.818Z,22.69
2019-05-30T07:49:46.788Z,22.46
2019-05-30T07:50:46.779Z,22.68
2019-05-30T07:51:46.774Z,23.09
2019-05-30T07:52:46.816Z,23.46
2019-05-30T07:53:46.740Z,23.26
2019-05-30T07:54:46.738Z,22.60
2019-05-30T07:55:46.717Z,22.32
2019-05-30T07:56:46.708Z,22.59
2019-05-30T07:57:46.697Z,22.96
2019-05-30T07:58:46.767Z,23.24
2019-05-30T07:59:46.673Z,23.42
2019-05-30T08:00:46.705Z,23.39
2019-05-30T08:01:46.653Z,23.53
2019-05-30T08:02:46.638Z,23.46
2019-05-30T08:03:46.632Z,23.02
2019-05-30T08:04:47.108Z,23.24
2019-05-30T08:05:46.605Z,23.09
2019-05-30T08:06:46.623Z,23.02
2019-05-30T08:07:46.585Z,23.40
2019-05-30T08:08:46.576Z,23.58
2019-05-30T08:09:46.560Z,23.79
2019-05-30T08:10:46.611Z,23.83
2019-05-30T08:11:46.543Z,23.62
2019-05-30T08:12:46.530Z,23.68
2019-05-30T08:13:46.520Z,23.95
2019-05-30T08:14:46.565Z,24.02
2019-05-30T08:15:46.492Z,24.14
2019-05-30T08:16:46.547Z,23.52
2019-05-30T08:17:46.477Z,23.32
2019-05-30T08:18:46.461Z,23.11
2019-05-30T08:19:46.450Z,22.96
2019-05-30T08:20:46.451Z,23.50
2019-05-30T08:21:46.426Z,22.47
2019-05-30T08:22:46.499Z,22.67
2019-05-30T08:23:46.406Z,23.20
2019-05-30T08:24:46.392Z,23.01
2019-05-30T08:25:46.382Z,23.08
2019-05-30T08:26:46.395Z,23.38
2019-05-30T08:27:46.363Z,23.76
2019-05-30T08:28:46.416Z,23.23
2019-05-30T08:29:46.339Z,23.61
2019-05-30T08:30:46.333Z,24.02
2019-05-30T08:31:46.316Z,24.13
2019-05-30T08:32:46.321Z,24.63
2019-05-30T08:33:47.446Z,24.64
2019-05-30T08:34:46.348Z,24.87
2019-05-30T08:35:49.939Z,24.71
2019-05-30T08:36:46.272Z,24.59
2019-05-30T08:37:46.279Z,24.61
2019-05-30T08:38:48.206Z,24.27
2019-05-30T08:39:46.237Z,23.94
2019-05-30T08:40:46.287Z,24.35
2019-05-30T08:41:46.204Z,24.47
2019-05-30T08:42:46.213Z,24.41
2019-05-30T08:43:46.183Z,24.23
2019-05-30T08:44:46.171Z,23.97
2019-05-30T08:45:46.163Z,24.14
2019-05-30T08:46:46.216Z,23.98
2019-05-30T08:47:46.139Z,24.31
2019-05-30T08:48:46.127Z,24.61
2019-05-30T08:49:46.120Z,24.77
2019-05-30T08:50:46.106Z,24.68
2019-05-30T08:51:46.116Z,24.69
2019-05-30T08:52:46.180Z,24.68
2019-05-30T08:53:46.069Z,24.45
2019-05-30T08:54:46.063Z,24.52
2019-05-30T08:55:46.045Z,24.32
2019-05-30T08:56:46.091Z,24.63
2019-05-30T08:57:46.025Z,24.90
2019-05-30T08:58:46.073Z,24.85
2019-05-30T08:59:46.001Z,25.39
2019-05-30T09:00:45.994Z,25.69
2019-05-30T09:01:47.125Z,25.16
2019-05-30T09:02:46.933Z,24.91
2019-05-30T09:03:46.320Z,24.45
2019-05-30T09:04:46.086Z,24.07
2019-05-30T09:05:59.242Z,24.13
2019-05-30T09:06:46.923Z,24.32
2019-05-30T09:07:46.317Z,24.44
2019-05-30T09:08:46.360Z,24.98
2019-05-30T09:09:46.396Z,25.02
2019-05-30T09:10:46.491Z,24.59
2019-05-30T09:11:46.373Z,24.45
2019-05-30T09:12:49.372Z,24.94
2019-05-30T09:13:46.737Z,25.05
2019-05-30T09:14:46.940Z,24.63
2019-05-30T09:15:46.981Z,24.67
2019-05-30T09:16:46.519Z,24.83
2019-05-30T09:17:46.748Z,25.37
2019-05-30T09:18:45.798Z,25.65
2019-05-30T09:19:45.782Z,25.75
2019-05-30T09:20:45.790Z,25.52
2019-05-30T09:21:45.758Z,25.05
2019-05-30T09:22:45.819Z,24.60
2019-05-30T09:23:46.256Z,24.95
2019-05-30T09:24:46.124Z,25.16
2019-05-30T09:25:48.241Z,24.71
2019-05-30T09:26:48.491Z,24.88
2019-05-30T09:27:46.680Z,25.12
2019-05-30T09:28:46.282Z,25.68
2019-05-30T09:29:46.220Z,26.06
2019-05-30T09:30:46.502Z,25.49
2019-05-30T09:31:46.715Z,25.17
2019-05-30T09:32:46.832Z,25.30
2019-05-30T09:33:46.659Z,25.53
2019-05-30T09:34:46.877Z,25.34
2019-05-30T09:35:46.932Z,25.31
2019-05-30T09:36:46.856Z,25.38
2019-05-30T09:37:45.974Z,25.44
2019-05-30T09:38:45.576Z,25.82
2019-05-30T09:39:45.616Z,25.71
2019-05-30T09:40:45.614Z,26.25
2019-05-30T09:41:45.775Z,25.98
2019-05-30T09:42:46.940Z,25.49
2019-05-30T09:43:46.377Z,25.43
2019-05-30T09:44:48.944Z,25.06
2019-05-30T09:45:46.568Z,25.30
2019-05-30T09:46:46.864Z,25.46
2019-05-30T09:47:47.173Z,25.77
2019-05-30T09:48:46.574Z,26.06
2019-05-30T09:49:46.538Z,26.21
2019-05-30T09:50:46.693Z,25.72
2019-05-30T09:51:46.911Z,25.91
2019-05-30T09:52:45.451Z,26.29
2019-05-30T09:53:45.967Z,26.42
2019-05-30T09:54:45.920Z,25.98
2019-05-30T09:55:46.189Z,25.75
2019-05-30T09:56:46.353Z,25.49
2019-05-30T09:57:45.894Z,25.79
2019-05-30T09:58:46.073Z,25.77
2019-05-30T09:59:46.626Z,26.08
2019-05-30T10:00:46.667Z,26.61
2019-05-30T10:01:46.034Z,25.64
2019-05-30T10:02:46.607Z,25.72
2019-05-30T10:03:46.491Z,26.20
2019-05-30T10:04:46.817Z,26.52
2019-05-30T10:05:46.941Z,26.32
2019-05-30T10:06:46.292Z,26.04
2019-05-30T10:07:45.921Z,26.15
2019-05-30T10:08:46.593Z,25.99
2019-05-30T10:09:45.688Z,26.28
2019-05-30T10:10:45.708Z,24.82
2019-05-30T10:11:45.605Z,23.70
2019-05-30T10:12:46.524Z,24.14
2019-05-30T10:13:46.342Z,24.49
2019-05-30T10:14:46.581Z,24.71
2019-05-30T10:15:45.751Z,25.27
2019-05-30T10:16:47.852Z,25.72
2019-05-30T10:17:47.631Z,26.31
2019-05-30T10:18:46.090Z,26.46
2019-05-30T10:19:45.991Z,26.21
2019-05-30T10:20:46.284Z,25.72
2019-05-30T10:21:46.091Z,25.74
2019-05-30T10:22:48.282Z,25.74
2019-05-30T10:23:47.192Z,25.54
2019-05-30T10:24:46.228Z,25.79
2019-05-30T10:25:46.588Z,25.50
2019-05-30T10:26:46.127Z,25.57
2019-05-30T10:27:46.425Z,25.24
2019-05-30T10:28:46.104Z,25.20
2019-05-30T10:29:47.290Z,25.64
2019-05-30T10:30:48.293Z,26.11
2019-05-30T10:31:46.476Z,26.65
2019-05-30T10:32:46.537Z,26.98
2019-05-30T10:33:46.289Z,27.21
2019-05-30T10:34:46.163Z,26.84
2019-05-30T10:35:46.103Z,26.99
2019-05-30T10:36:47.200Z,27.51
2019-05-30T10:37:45.781Z,27.57
2019-05-30T10:38:45.430Z,26.81
2019-05-30T10:39:46.978Z,26.96
2019-05-30T10:40:45.629Z,26.50
2019-05-30T10:41:46.247Z,26.06
2019-05-30T10:42:46.168Z,26.36
2019-05-30T10:43:45.974Z,26.81
2019-05-30T10:44:46.066Z,26.50
2019-05-30T10:45:46.188Z,26.87
2019-05-30T10:46:47.037Z,27.31
2019-05-30T10:47:45.894Z,27.66
2019-05-30T10:48:47.290Z,27.91
2019-05-30T10:49:45.299Z,28.04
2019-05-30T10:50:46.847Z,28.17
2019-05-30T10:51:46.179Z,28.26
2019-05-30T10:52:45.337Z,28.53
2019-05-30T10:53:45.486Z,28.77
2019-05-30T10:54:45.035Z,28.87
2019-05-30T10:55:45.298Z,29.10
2019-05-30T10:56:45.132Z,29.15
2019-05-30T10:57:45.214Z,28.54
2019-05-30T10:58:46.530Z,26.09
2019-05-30T10:59:46.138Z,25.05
2019-05-30T11:00:45.643Z,24.60
2019-05-30T11:01:46.612Z,25.37
2019-05-30T11:02:46.071Z,25.75
2019-05-30T11:03:45.837Z,25.79
2019-05-30T11:04:45.946Z,25.62
2019-05-30T11:05:44.656Z,26.15
2019-05-30T11:07:01.264Z,26.98
2019-05-30T11:07:55.088Z,26.74
2019-05-30T11:08:46.173Z,27.06
2019-05-30T11:09:44.611Z,26.99
2019-05-30T11:10:44.609Z,25.89
2019-05-30T11:11:44.592Z,25.22
2019-05-30T11:12:44.589Z,25.22
2019-05-30T11:13:44.571Z,24.41
2019-05-30T11:14:44.613Z,23.72
2019-05-30T11:15:44.554Z,23.49
2019-05-30T11:16:44.538Z,23.92
2019-05-30T11:17:44.528Z,23.95
2019-05-30T11:18:44.517Z,23.94
2019-05-30T11:19:44.507Z,23.89
2019-05-30T11:20:44.550Z,23.27
2019-05-30T11:21:44.483Z,22.77
2019-05-30T11:22:44.474Z,22.31
2019-05-30T11:23:44.462Z,22.10
2019-05-30T11:24:44.454Z,22.01
2019-05-30T11:25:44.440Z,23.29
2019-05-30T11:26:44.492Z,24.95
2019-05-30T11:27:44.426Z,26.32
2019-05-30T11:28:44.409Z,26.64
2019-05-30T11:29:44.396Z,26.28
2019-05-30T11:30:44.411Z,26.37
2019-05-30T11:31:44.375Z,26.84
2019-05-30T11:32:44.431Z,27.24
2019-05-30T11:33:44.355Z,27.94
2019-05-30T11:34:44.349Z,28.09
2019-05-30T11:35:44.334Z,27.70
2019-05-30T11:36:44.323Z,27.42
2019-05-30T11:37:44.311Z,27.79
2019-05-30T11:38:44.364Z,27.88
2019-05-30T11:39:44.294Z,28.23
2019-05-30T11:40:44.281Z,27.80
2019-05-30T11:41:44.270Z,27.33
2019-05-30T11:42:44.259Z,27.46
2019-05-30T11:43:44.251Z,27.89
2019-05-30T11:44:44.312Z,27.88
2019-05-30T11:45:44.228Z,27.88
2019-05-30T11:46:44.217Z,28.16
2019-05-30T11:47:44.207Z,28.11
2019-05-30T11:48:44.197Z,27.71
2019-05-30T11:49:44.189Z,27.84
2019-05-30T11:50:44.285Z,27.98
2019-05-30T11:51:44.166Z,28.13
2019-05-30T11:52:44.155Z,28.23
2019-05-30T11:53:44.151Z,28.21
2019-05-30T11:54:44.133Z,28.38
2019-05-30T11:55:44.123Z,28.23
2019-05-30T11:56:44.173Z,28.58
2019-05-30T11:57:44.100Z,29.31
2019-05-30T11:58:44.089Z,29.34
2019-05-30T11:59:44.078Z,28.60
2019-05-30T12:00:44.068Z,26.79
2019-05-30T12:01:44.068Z,25.67
2019-05-30T12:02:44.113Z,25.43
2019-05-30T12:03:44.037Z,26.15
2019-05-30T12:04:44.027Z,27.17
2019-05-30T12:05:44.015Z,27.99
2019-05-30T12:06:44.008Z,28.29
2019-05-30T12:07:43.997Z,28.53
2019-05-30T12:08:44.044Z,29.10
2019-05-30T12:09:43.976Z,28.81
2019-05-30T12:10:43.968Z,28.96
2019-05-30T12:11:44.016Z,28.95
2019-05-30T12:12:43.946Z,27.91
2019-05-30T12:13:44.006Z,26.58
2019-05-30T12:14:43.986Z,25.90
2019-05-30T12:15:43.916Z,25.43
2019-05-30T12:16:43.904Z,24.90
2019-05-30T12:17:43.936Z,24.67
2019-05-30T12:18:43.882Z,24.75
2019-05-30T12:19:43.890Z,24.44
2019-05-30T12:20:43.926Z,24.02
2019-05-30T12:21:43.853Z,24.17
2019-05-30T12:22:43.839Z,23.71
2019-05-30T12:23:43.829Z,23.40
2019-05-30T12:24:43.820Z,23.22
2019-05-30T12:25:43.888Z,23.14
2019-05-30T12:26:43.862Z,23.22
2019-05-30T12:27:43.786Z,23.49
2019-05-30T12:28:43.775Z,23.27
2019-05-30T12:29:43.765Z,23.15
2019-05-30T12:30:56.010Z,22.94
2019-05-30T12:31:44.817Z,22.80
2019-05-30T12:32:43.730Z,22.90
2019-05-30T12:33:43.732Z,23.24
2019-05-30T12:34:43.709Z,23.42
2019-05-30T12:35:43.700Z,24.29
2019-05-30T12:36:43.687Z,24.45
2019-05-30T12:37:54.265Z,24.61
2019-05-30T12:38:44.665Z,24.69
2019-05-30T12:39:43.654Z,24.73
2019-05-30T12:40:43.644Z,24.31
2019-05-30T12:41:43.635Z,24.35
2019-05-30T12:42:43.673Z,24.60
2019-05-30T12:43:43.676Z,25.37
2019-05-30T12:44:43.599Z,25.84
2019-05-30T12:45:43.592Z,26.42
2019-05-30T12:46:43.581Z,27.33
2019-05-30T12:47:43.568Z,27.92
2019-05-30T12:48:43.560Z,28.33
2019-05-30T12:49:43.606Z,28.38
2019-05-30T12:50:43.536Z,28.85
2019-05-30T12:51:43.526Z,29.35
2019-05-30T12:52:43.513Z,29.50
2019-05-30T12:53:43.502Z,29.63
2019-05-30T12:54:43.496Z,29.18
2019-05-30T12:55:43.548Z,27.17
2019-05-30T12:56:43.474Z,26.39
2019-05-30T12:57:43.469Z,25.97
2019-05-30T12:58:43.449Z,26.69
2019-05-30T12:59:43.442Z,25.62
2019-05-30T13:00:43.433Z,25.80
2019-05-30T13:01:43.479Z,27.11
2019-05-30T13:02:43.413Z,27.31